createdAt,value
2022-11-30T00:00:43.991Z,239.02
2022-11-30T00:01:46.879Z,427.08
2022-11-30T00:02:48.781Z,456.83
2022-11-30T00:03:53.364Z,305.77
2022-11-30T00:04:54.864Z,71.88
2022-11-30T00:05:56.362Z,355.38
2022-11-30T00:06:57.874Z,141.13
2022-11-30T00:08:00.837Z,38.85
2022-11-30T00:09:02.450Z,274.80
2022-11-30T00:10:06.015Z,389.30
2022-11-30T00:11:08.960Z,321.50
2022-11-30T00:12:10.499Z,256.83
2022-11-30T00:13:12.085Z,47.92
2022-11-30T00:14:13.573Z,78.93
2022-11-30T00:15:16.179Z,78.72
2022-11-30T00:16:17.818Z,64.30
2022-11-30T00:17:20.749Z,93.43
2022-11-30T00:18:22.233Z,170.18
2022-11-30T00:19:23.799Z,182.02
2022-11-30T00:20:26.497Z,335.70
2022-11-30T00:21:28.062Z,488.10
2022-11-30T00:22:29.599Z,549.25
2022-11-30T00:23:34.461Z,378.27
2022-11-30T00:24:36.004Z,286.23
2022-11-30T00:25:37.579Z,354.70
2022-11-30T00:26:39.140Z,270.63
2022-11-30T00:27:40.778Z,89.93
2022-11-30T00:28:43.109Z,413.90
2022-11-30T00:29:44.677Z,361.02
2022-11-30T00:30:46.188Z,531.25
2022-11-30T00:31:47.710Z,472.40
2022-11-30T00:32:50.579Z,313.30
2022-11-30T00:33:52.186Z,525.50
2022-11-30T00:34:54.020Z,368.63
2022-11-30T00:35:56.865Z,383.65
2022-11-30T00:36:58.391Z,328.83
2022-11-30T00:38:01.895Z,503.48
2022-11-30T00:39:03.468Z,564.13
2022-11-30T00:40:06.597Z,165.00
2022-11-30T00:41:08.201Z,254.75
2022-11-30T00:42:09.912Z,169.23
2022-11-30T00:43:11.388Z,512.08
2022-11-30T00:44:12.936Z,274.15
2022-11-30T00:45:14.535Z,74.38
2022-11-30T00:46:16.145Z,81.75
2022-11-30T00:47:17.669Z,92.40
2022-11-30T00:48:20.754Z,159.80
2022-11-30T00:49:22.250Z,17.35
2022-11-30T00:50:23.763Z,50.50
2022-11-30T00:51:25.338Z,165.60
2022-11-30T00:52:32.546Z,34.63
2022-11-30T00:53:34.435Z,27.70
2022-11-30T00:54:35.936Z,24.65
2022-11-30T00:55:37.495Z,63.72
2022-11-30T00:56:39.073Z,49.13
2022-11-30T00:57:40.608Z,271.83
2022-11-30T00:58:42.128Z,351.17
2022-11-30T00:59:43.667Z,354.95
2022-11-30T01:00:45.522Z,287.23
2022-11-30T01:01:47.075Z,358.02
2022-11-30T01:02:53.877Z,296.13
2022-11-30T01:03:56.777Z,130.98
2022-11-30T01:04:58.326Z,395.63
2022-11-30T01:06:02.256Z,350.95
2022-11-30T01:07:04.004Z,143.52
2022-11-30T01:08:08.583Z,123.18
2022-11-30T01:09:10.114Z,268.75
2022-11-30T01:10:11.707Z,354.77
2022-11-30T01:11:16.547Z,425.05
2022-11-30T01:12:18.087Z,519.60
2022-11-30T01:13:19.650Z,490.13
2022-11-30T01:14:21.306Z,511.83
2022-11-30T01:15:23.698Z,600.67
2022-11-30T01:16:27.543Z,678.50
2022-11-30T01:17:29.091Z,725.85
2022-11-30T01:18:30.599Z,675.05
2022-11-30T01:19:33.481Z,529.60
2022-11-30T01:20:35.295Z,622.08
2022-11-30T01:21:36.811Z,553.63
2022-11-30T01:22:38.473Z,565.45
2022-11-30T01:23:40.954Z,448.52
2022-11-30T01:24:42.475Z,461.48
2022-11-30T01:25:53.564Z,457.48
2022-11-30T01:26:55.098Z,534.97
2022-11-30T01:27:56.616Z,547.72
2022-11-30T01:28:58.202Z,469.13
2022-11-30T01:29:59.745Z,491.58
2022-11-30T01:31:03.754Z,537.70
2022-11-30T01:32:05.934Z,538.15
2022-11-30T01:33:07.479Z,581.65
2022-11-30T01:34:08.979Z,578.95
2022-11-30T01:35:11.904Z,635.00
2022-11-30T01:36:14.940Z,605.30
2022-11-30T01:37:16.469Z,648.67
2022-11-30T01:38:18.011Z,516.33
2022-11-30T01:39:19.567Z,512.05
2022-11-30T01:40:21.125Z,540.67
2022-11-30T01:41:25.023Z,622.33
2022-11-30T01:42:26.883Z,604.67
2022-11-30T01:43:41.440Z,797.38
2022-11-30T01:44:55.023Z,688.90
2022-11-30T01:45:57.367Z,625.38
2022-11-30T01:47:03.081Z,686.30
2022-11-30T01:48:07.411Z,656.90
2022-11-30T01:49:15.987Z,737.60
2022-11-30T01:50:23.735Z,683.33
2022-11-30T01:51:29.535Z,647.80
2022-11-30T01:52:35.523Z,862.38
2022-11-30T01:53:37.078Z,741.70
2022-11-30T01:54:43.078Z,721.15
2022-11-30T01:55:47.449Z,859.63
2022-11-30T01:56:52.199Z,846.17
2022-11-30T01:57:58.055Z,689.28
2022-11-30T01:59:00.206Z,829.45
2022-11-30T02:00:06.605Z,1089.72
2022-11-30T02:01:08.137Z,949.30
2022-11-30T02:02:09.827Z,758.13
2022-11-30T02:03:30.105Z,547.58
2022-11-30T02:04:34.170Z,721.40
2022-11-30T02:05:39.399Z,683.28
2022-11-30T02:06:41.693Z,879.35
2022-11-30T02:07:43.633Z,888.25
2022-11-30T02:08:46.143Z,807.35
2022-11-30T02:09:47.726Z,860.88
2022-11-30T02:10:53.358Z,972.33
2022-11-30T02:11:56.651Z,974.95
2022-11-30T02:13:32.116Z,781.53
2022-11-30T02:14:38.217Z,798.20
2022-11-30T02:15:49.039Z,693.50
2022-11-30T02:17:00.694Z,687.35
2022-11-30T02:18:09.142Z,572.25
2022-11-30T02:19:33.717Z,713.17
2022-11-30T02:20:55.571Z,526.65
2022-11-30T02:22:04.089Z,566.75
2022-11-30T02:23:29.157Z,572.53
2022-11-30T02:24:54.398Z,575.60
2022-11-30T02:26:04.356Z,487.55
2022-11-30T02:27:26.612Z,514.47
2022-11-30T02:29:04.085Z,600.15
2022-11-30T02:30:09.756Z,388.50
2022-11-30T02:31:15.024Z,654.10
2022-11-30T02:32:20.491Z,589.92
2022-11-30T02:33:25.294Z,519.47
2022-11-30T02:34:30.235Z,615.35
2022-11-30T02:35:35.071Z,401.65
2022-11-30T02:36:40.298Z,164.18
2022-11-30T02:37:43.009Z,125.82
2022-11-30T02:38:44.593Z,148.35
2022-11-30T02:39:46.130Z,150.40
2022-11-30T02:40:47.842Z,183.15
2022-11-30T02:41:49.581Z,158.73
2022-11-30T02:42:53.900Z,210.85
2022-11-30T02:43:55.459Z,406.88
2022-11-30T02:44:58.395Z,778.60
2022-11-30T02:46:08.518Z,480.00
2022-11-30T02:47:22.179Z,276.35
2022-11-30T02:48:29.966Z,574.75
2022-11-30T02:49:36.949Z,732.03
2022-11-30T02:50:44.279Z,785.55
2022-11-30T02:51:48.233Z,276.02
2022-11-30T02:52:50.351Z,215.55
2022-11-30T02:53:52.767Z,131.50
2022-11-30T02:54:59.335Z,162.30
2022-11-30T02:56:00.832Z,270.65
2022-11-30T02:57:02.380Z,191.85
2022-11-30T02:58:03.932Z,145.65
2022-11-30T02:59:05.510Z,162.35
2022-11-30T03:00:10.409Z,189.77
2022-11-30T03:01:12.021Z,237.02
2022-11-30T03:02:13.546Z,230.95
2022-11-30T03:03:15.065Z,165.27
2022-11-30T03:04:16.619Z,164.02
2022-11-30T03:05:18.266Z,125.45
2022-11-30T03:06:19.812Z,126.75
2022-11-30T03:07:21.471Z,104.15
2022-11-30T03:08:23.143Z,117.18
2022-11-30T03:09:24.731Z,112.25
2022-11-30T03:10:26.294Z,118.82
2022-11-30T03:11:27.826Z,110.45
2022-11-30T03:12:29.502Z,110.45
2022-11-30T03:13:31.088Z,105.72
2022-11-30T03:14:32.638Z,91.72
2022-11-30T03:15:35.941Z,92.65
2022-11-30T03:16:37.546Z,100.40
2022-11-30T03:17:39.061Z,99.63
2022-11-30T03:18:40.871Z,92.15
2022-11-30T03:19:42.355Z,96.88
2022-11-30T03:20:43.914Z,92.43
2022-11-30T03:21:45.431Z,95.65
2022-11-30T03:22:46.972Z,99.05
2022-11-30T03:23:48.511Z,111.53
2022-11-30T03:24:50.389Z,105.68
2022-11-30T03:25:52.063Z,123.38
2022-11-30T03:26:53.603Z,96.35
2022-11-30T03:27:55.285Z,113.25
2022-11-30T03:29:16.887Z,92.20
2022-11-30T03:30:18.735Z,81.57
2022-11-30T03:31:21.610Z,102.25
2022-11-30T03:32:23.232Z,101.35
2022-11-30T03:33:25.205Z,108.03
2022-11-30T03:34:26.701Z,100.88
2022-11-30T03:35:28.234Z,97.38
2022-11-30T03:36:29.735Z,103.35
2022-11-30T03:37:31.236Z,121.10
2022-11-30T03:38:33.381Z,121.65
2022-11-30T03:39:34.925Z,125.82
2022-11-30T03:40:37.138Z,139.02
2022-11-30T03:41:38.676Z,107.63
2022-11-30T03:42:40.202Z,158.18
2022-11-30T03:43:42.116Z,336.13
2022-11-30T03:44:43.643Z,254.65
2022-11-30T03:45:45.233Z,645.08
2022-11-30T03:46:48.209Z,143.90
2022-11-30T03:47:49.762Z,163.35
2022-11-30T03:48:57.468Z,139.65
2022-11-30T03:49:59.010Z,134.55
2022-11-30T03:51:00.518Z,136.90
2022-11-30T03:52:03.137Z,168.65
2022-11-30T03:53:04.646Z,161.25
2022-11-30T03:54:06.221Z,145.13
2022-11-30T03:55:08.458Z,102.78
2022-11-30T03:56:11.591Z,112.85
2022-11-30T03:57:13.135Z,112.07
2022-11-30T03:58:14.626Z,113.88
2022-11-30T03:59:16.167Z,115.88
2022-11-30T04:00:19.234Z,129.77
2022-11-30T04:01:22.042Z,115.78
2022-11-30T04:02:25.008Z,101.85
2022-11-30T04:03:26.782Z,113.65
2022-11-30T04:04:28.329Z,103.97
2022-11-30T04:05:29.864Z,96.22
2022-11-30T04:06:31.395Z,108.15
2022-11-30T04:07:32.972Z,120.38
2022-11-30T04:08:35.536Z,95.28
2022-11-30T04:09:37.057Z,98.65
2022-11-30T04:10:38.598Z,92.13
2022-11-30T04:11:40.142Z,79.00
2022-11-30T04:12:41.698Z,85.82
2022-11-30T04:13:43.397Z,91.93
2022-11-30T04:14:45.149Z,86.25
2022-11-30T04:15:48.035Z,84.85
2022-11-30T04:16:49.612Z,87.25
2022-11-30T04:17:52.491Z,110.18
2022-11-30T04:18:53.992Z,92.80
2022-11-30T04:19:55.496Z,91.75
2022-11-30T04:20:58.597Z,85.25
2022-11-30T04:22:00.135Z,73.43
2022-11-30T04:23:01.664Z,77.45
2022-11-30T04:24:03.567Z,84.05
2022-11-30T04:25:06.011Z,75.18
2022-11-30T04:26:10.818Z,94.00
2022-11-30T04:27:12.330Z,92.68
2022-11-30T04:28:14.900Z,107.85
2022-11-30T04:29:16.450Z,79.95
2022-11-30T04:30:17.999Z,90.78
2022-11-30T04:31:19.539Z,79.15
2022-11-30T04:32:21.066Z,87.28
2022-11-30T04:33:23.908Z,96.85
2022-11-30T04:34:25.446Z,99.85
2022-11-30T04:35:27.013Z,88.60
2022-11-30T04:36:28.551Z,88.00
2022-11-30T04:37:30.102Z,97.60
2022-11-30T04:38:32.474Z,97.47
2022-11-30T04:39:34.170Z,92.10
2022-11-30T04:40:39.688Z,87.63
2022-11-30T04:41:41.222Z,78.93
2022-11-30T04:42:43.013Z,79.35
2022-11-30T04:43:44.556Z,76.53
2022-11-30T04:44:46.532Z,77.00
2022-11-30T04:45:48.364Z,80.95
2022-11-30T04:46:49.879Z,83.45
2022-11-30T04:47:51.371Z,92.80
2022-11-30T04:48:54.205Z,97.47
2022-11-30T04:49:55.807Z,97.03
2022-11-30T04:51:00.869Z,89.88
2022-11-30T04:52:02.423Z,92.25
2022-11-30T04:53:04.015Z,88.43
2022-11-30T04:54:05.670Z,113.55
2022-11-30T04:55:08.050Z,99.93
2022-11-30T04:56:11.019Z,115.57
2022-11-30T04:57:12.571Z,111.65
2022-11-30T04:58:14.063Z,134.73
2022-11-30T04:59:15.605Z,143.38
2022-11-30T05:00:18.893Z,160.60
2022-11-30T05:01:20.465Z,131.55
2022-11-30T05:02:22.025Z,197.90
2022-11-30T05:03:23.575Z,152.48
2022-11-30T05:04:26.504Z,247.05
2022-11-30T05:05:28.251Z,260.55
2022-11-30T05:06:29.747Z,362.20
2022-11-30T05:07:31.347Z,476.42
2022-11-30T05:08:32.893Z,267.63
2022-11-30T05:09:34.540Z,416.08
2022-11-30T05:10:36.104Z,342.13
2022-11-30T05:11:37.632Z,272.17
2022-11-30T05:12:39.132Z,142.63
2022-11-30T05:13:40.630Z,158.65
2022-11-30T05:14:42.184Z,162.07
2022-11-30T05:15:43.680Z,167.30
2022-11-30T05:16:47.106Z,198.40
2022-11-30T05:17:48.597Z,208.23
2022-11-30T05:18:51.054Z,210.73
2022-11-30T05:19:54.007Z,209.48
2022-11-30T05:20:55.503Z,155.18
2022-11-30T05:21:57.050Z,137.25
2022-11-30T05:22:58.713Z,144.18
2022-11-30T05:24:00.405Z,308.00
2022-11-30T05:25:02.143Z,361.85
2022-11-30T05:26:04.403Z,294.98
2022-11-30T05:27:16.585Z,179.57
2022-11-30T05:28:20.980Z,178.35
2022-11-30T05:29:22.480Z,213.88
2022-11-30T05:30:23.955Z,178.88
2022-11-30T05:31:25.470Z,207.50
2022-11-30T05:32:27.073Z,193.63
2022-11-30T05:33:28.599Z,153.98
2022-11-30T05:34:30.198Z,135.60
2022-11-30T05:35:33.243Z,168.60
2022-11-30T05:36:34.798Z,184.63
2022-11-30T05:37:36.292Z,248.15
2022-11-30T05:38:37.904Z,208.40
2022-11-30T05:39:39.444Z,301.65
2022-11-30T05:40:40.947Z,166.20
2022-11-30T05:41:42.503Z,314.10
2022-11-30T05:42:44.005Z,449.38
2022-11-30T05:43:45.517Z,519.83
2022-11-30T05:44:47.385Z,424.08
2022-11-30T05:45:49.104Z,832.97
2022-11-30T05:46:50.649Z,730.17
2022-11-30T05:47:52.307Z,473.05
2022-11-30T05:48:53.823Z,225.38
2022-11-30T05:49:55.374Z,162.50
2022-11-30T05:51:04.797Z,550.30
2022-11-30T05:52:06.353Z,532.08
2022-11-30T05:53:07.894Z,790.20
2022-11-30T05:54:09.451Z,820.22
2022-11-30T05:55:11.211Z,740.13
2022-11-30T05:56:14.813Z,776.45
2022-11-30T05:57:16.365Z,915.00
2022-11-30T05:58:17.876Z,764.67
2022-11-30T05:59:19.368Z,482.90
2022-11-30T06:00:27.101Z,607.88
2022-11-30T06:01:29.239Z,236.15
2022-11-30T06:02:30.825Z,408.55
2022-11-30T06:03:34.431Z,235.10
2022-11-30T06:04:35.966Z,154.95
2022-11-30T06:05:37.625Z,176.35
2022-11-30T06:06:40.477Z,199.43
2022-11-30T06:07:42.054Z,180.00
2022-11-30T06:08:44.656Z,188.07
2022-11-30T06:09:46.374Z,209.70
2022-11-30T06:10:48.676Z,291.83
2022-11-30T06:11:51.257Z,501.38
2022-11-30T06:12:53.469Z,570.10
2022-11-30T06:13:55.859Z,339.20
2022-11-30T06:14:57.629Z,146.02
2022-11-30T06:15:59.981Z,169.85
2022-11-30T06:17:01.708Z,296.55
2022-11-30T06:18:03.764Z,224.43
2022-11-30T06:19:05.456Z,255.18
2022-11-30T06:20:08.188Z,388.48
2022-11-30T06:21:11.343Z,398.77
2022-11-30T06:22:14.253Z,650.30
2022-11-30T06:23:15.844Z,673.85
2022-11-30T06:24:17.385Z,599.30
2022-11-30T06:25:19.000Z,725.50
2022-11-30T06:26:20.530Z,574.58
2022-11-30T06:27:22.296Z,753.35
2022-11-30T06:28:23.919Z,739.83
2022-11-30T06:29:25.460Z,829.13
2022-11-30T06:30:26.986Z,849.53
2022-11-30T06:31:30.301Z,639.03
2022-11-30T06:32:31.845Z,626.63
2022-11-30T06:33:33.959Z,589.35
2022-11-30T06:34:35.528Z,683.53
2022-11-30T06:35:37.049Z,244.50
2022-11-30T06:36:38.579Z,317.08
2022-11-30T06:37:41.751Z,250.60
2022-11-30T06:38:43.254Z,345.15
2022-11-30T06:40:05.460Z,216.43
2022-11-30T06:41:09.063Z,176.40
2022-11-30T06:42:10.753Z,228.82
2022-11-30T06:43:12.287Z,367.15
2022-11-30T06:44:13.825Z,147.63
2022-11-30T06:45:15.458Z,150.25
2022-11-30T06:46:17.051Z,164.38
2022-11-30T06:47:18.597Z,201.60
2022-11-30T06:48:20.189Z,170.10
2022-11-30T06:49:21.709Z,107.22
2022-11-30T06:50:23.505Z,175.98
2022-11-30T06:51:25.037Z,265.67
2022-11-30T06:52:26.550Z,164.90
2022-11-30T06:53:29.433Z,225.60
2022-11-30T06:54:39.862Z,209.05
2022-11-30T06:55:41.344Z,299.98
2022-11-30T06:56:42.853Z,165.00
2022-11-30T06:57:44.398Z,367.52
2022-11-30T06:58:45.953Z,497.52
2022-11-30T06:59:47.505Z,267.65
2022-11-30T07:00:49.186Z,373.27
2022-11-30T07:01:52.017Z,376.38
2022-11-30T07:02:53.985Z,504.50
2022-11-30T07:03:55.818Z,769.83
2022-11-30T07:04:57.919Z,524.10
2022-11-30T07:06:00.354Z,415.75
2022-11-30T07:07:01.894Z,277.00
2022-11-30T07:08:03.915Z,222.95
2022-11-30T07:09:07.009Z,195.05
2022-11-30T07:10:09.524Z,184.70
2022-11-30T07:11:12.328Z,83.47
2022-11-30T07:12:13.856Z,143.15
2022-11-30T07:13:18.277Z,168.60
2022-11-30T07:14:19.933Z,166.18
2022-11-30T07:15:21.587Z,180.45
2022-11-30T07:16:23.129Z,342.30
2022-11-30T07:17:24.668Z,341.98
2022-11-30T07:18:31.696Z,457.85
2022-11-30T07:19:34.366Z,402.05
2022-11-30T07:20:36.735Z,341.73
2022-11-30T07:21:38.270Z,362.05
2022-11-30T07:22:40.943Z,596.63
2022-11-30T07:23:42.509Z,211.68
2022-11-30T07:24:45.658Z,134.23
2022-11-30T07:25:48.550Z,387.10
2022-11-30T07:26:50.085Z,562.38
2022-11-30T07:27:51.625Z,429.88
2022-11-30T07:28:54.214Z,236.07
2022-11-30T07:29:55.851Z,426.65
2022-11-30T07:30:57.381Z,346.55
2022-11-30T07:31:58.938Z,228.20
2022-11-30T07:33:00.687Z,305.58
2022-11-30T07:34:05.149Z,159.60
2022-11-30T07:35:07.127Z,215.68
2022-11-30T07:36:09.175Z,208.77
2022-11-30T07:37:10.739Z,186.65
2022-11-30T07:38:12.243Z,264.13
2022-11-30T07:39:14.516Z,182.23
2022-11-30T07:40:17.487Z,157.82
2022-11-30T07:41:19.169Z,167.02
2022-11-30T07:42:20.708Z,178.82
2022-11-30T07:43:22.244Z,151.05
2022-11-30T07:44:23.766Z,140.15
2022-11-30T07:45:25.293Z,131.98
2022-11-30T07:46:26.832Z,138.57
2022-11-30T07:47:28.380Z,161.82
2022-11-30T07:48:30.459Z,132.93
2022-11-30T07:49:31.982Z,230.90
2022-11-30T07:50:33.510Z,240.82
2022-11-30T07:51:35.507Z,271.15
2022-11-30T07:52:37.039Z,156.57
2022-11-30T07:53:38.653Z,225.88
2022-11-30T07:54:40.182Z,214.98
2022-11-30T07:55:43.480Z,198.60
2022-11-30T07:56:44.995Z,328.52
2022-11-30T07:57:46.513Z,222.50
2022-11-30T07:58:48.892Z,361.27
2022-11-30T07:59:50.520Z,601.45
2022-11-30T08:00:52.218Z,536.90
2022-11-30T08:01:53.900Z,492.83
2022-11-30T08:02:55.558Z,583.90
2022-11-30T08:03:58.119Z,676.30
2022-11-30T08:04:59.712Z,561.72
2022-11-30T08:06:01.968Z,722.88
2022-11-30T08:07:03.486Z,670.50
2022-11-30T08:08:05.135Z,684.13
2022-11-30T08:09:06.697Z,466.15
2022-11-30T08:10:09.506Z,646.30
2022-11-30T08:11:14.965Z,296.50
2022-11-30T08:12:16.525Z,677.28
2022-11-30T08:13:18.054Z,229.43
2022-11-30T08:14:19.634Z,363.60
2022-11-30T08:15:22.371Z,252.35
2022-11-30T08:16:27.431Z,292.77
2022-11-30T08:17:28.967Z,188.48
2022-11-30T08:18:30.526Z,168.00
2022-11-30T08:19:32.019Z,279.98
2022-11-30T08:20:33.531Z,349.80
2022-11-30T08:21:35.125Z,129.30
2022-11-30T08:22:36.639Z,157.80
2022-11-30T08:23:39.921Z,131.48
2022-11-30T08:24:41.468Z,112.63
2022-11-30T08:25:42.955Z,174.90
2022-11-30T08:26:45.819Z,143.95
2022-11-30T08:27:47.329Z,177.55
2022-11-30T08:28:50.088Z,100.18
2022-11-30T08:29:51.796Z,131.40
2022-11-30T08:30:53.349Z,92.07
2022-11-30T08:31:54.925Z,128.55
2022-11-30T08:32:57.064Z,148.20
2022-11-30T08:34:00.334Z,97.85
2022-11-30T08:35:01.850Z,114.85
2022-11-30T08:36:07.914Z,153.35
2022-11-30T08:37:09.638Z,70.85
2022-11-30T08:38:11.169Z,133.95
2022-11-30T08:39:13.557Z,123.00
2022-11-30T08:40:15.337Z,119.05
2022-11-30T08:41:21.124Z,144.75
2022-11-30T08:42:23.987Z,99.05
2022-11-30T08:43:25.508Z,78.65
2022-11-30T08:44:28.470Z,87.85
2022-11-30T08:45:29.992Z,78.18
2022-11-30T08:46:52.097Z,83.13
2022-11-30T08:47:54.749Z,86.85
2022-11-30T08:49:12.907Z,94.38
2022-11-30T08:50:18.076Z,106.25
2022-11-30T08:51:20.851Z,101.72
2022-11-30T08:52:22.474Z,114.03
2022-11-30T08:53:23.994Z,127.57
2022-11-30T08:54:25.526Z,95.20
2022-11-30T08:55:27.134Z,102.60
2022-11-30T08:56:28.662Z,98.00
2022-11-30T08:57:31.619Z,111.25
2022-11-30T08:58:35.453Z,94.70
2022-11-30T08:59:37.115Z,87.68
2022-11-30T09:00:38.642Z,79.72
2022-11-30T09:01:40.194Z,93.25
2022-11-30T09:02:41.836Z,87.97
2022-11-30T09:03:44.718Z,72.53
2022-11-30T09:04:47.655Z,76.75
2022-11-30T09:05:49.205Z,44.35
2022-11-30T09:06:50.716Z,66.43
2022-11-30T09:07:52.297Z,64.72
2022-11-30T09:08:55.899Z,88.22
2022-11-30T09:09:57.394Z,72.90
2022-11-30T09:10:58.915Z,80.07
2022-11-30T09:12:03.593Z,53.28
2022-11-30T09:13:06.454Z,76.13
2022-11-30T09:14:09.625Z,64.90
2022-11-30T09:15:11.264Z,46.83
2022-11-30T09:16:14.436Z,46.83
2022-11-30T09:17:16.006Z,74.53
2022-11-30T09:18:17.514Z,46.03
2022-11-30T09:19:19.301Z,51.85
2022-11-30T09:20:20.960Z,55.35
2022-11-30T09:21:24.522Z,24.17
2022-11-30T09:22:26.776Z,40.08
2022-11-30T09:23:28.840Z,33.70
2022-11-30T09:24:30.369Z,39.13
2022-11-30T09:25:31.891Z,44.83
2022-11-30T09:26:33.412Z,45.05
2022-11-30T09:27:34.953Z,46.45
2022-11-30T09:28:38.956Z,34.65
2022-11-30T09:29:40.594Z,23.33
2022-11-30T09:30:42.209Z,41.35
2022-11-30T09:31:43.728Z,40.03
2022-11-30T09:32:45.240Z,39.25
2022-11-30T09:33:46.881Z,50.05
2022-11-30T09:34:50.600Z,40.53
2022-11-30T09:35:56.609Z,34.70
2022-11-30T09:36:58.373Z,51.35
2022-11-30T09:38:09.053Z,48.17
2022-11-30T09:39:11.754Z,28.30
2022-11-30T09:40:15.042Z,55.50
2022-11-30T09:41:40.721Z,34.13
2022-11-30T09:42:51.544Z,32.78
2022-11-30T09:44:02.866Z,39.40
2022-11-30T09:45:11.309Z,27.98
2022-11-30T09:46:13.412Z,40.33
2022-11-30T09:47:35.806Z,36.22
2022-11-30T09:48:51.290Z,33.05
2022-11-30T09:49:53.711Z,38.08
2022-11-30T09:51:00.346Z,26.65
2022-11-30T09:52:04.133Z,31.17
2022-11-30T09:53:10.451Z,30.55
2022-11-30T09:54:14.981Z,22.40
2022-11-30T09:55:24.816Z,43.38
2022-11-30T09:56:30.668Z,38.15
2022-11-30T09:57:46.854Z,30.42
2022-11-30T09:58:52.947Z,45.08
2022-11-30T09:59:57.865Z,27.08
2022-11-30T10:01:02.483Z,40.00
2022-11-30T10:02:15.831Z,39.85
2022-11-30T10:03:21.857Z,51.60
2022-11-30T10:04:25.526Z,39.53
2022-11-30T10:05:38.120Z,49.92
2022-11-30T10:06:49.553Z,51.10
2022-11-30T10:09:40.114Z,46.80
2022-11-30T10:10:44.887Z,60.25
2022-11-30T10:11:59.657Z,45.60
2022-11-30T10:13:22.572Z,47.75
2022-11-30T10:14:37.041Z,52.22
2022-11-30T10:15:51.998Z,56.08
2022-11-30T10:17:00.783Z,35.83
2022-11-30T10:18:12.213Z,55.25
2022-11-30T10:20:37.601Z,45.83
2022-11-30T10:21:54.701Z,35.00
2022-11-30T10:23:10.431Z,33.28
2022-11-30T10:24:25.062Z,36.10
2022-11-30T10:25:37.523Z,43.70
2022-11-30T10:26:43.659Z,60.65
2022-11-30T10:27:50.662Z,52.33
2022-11-30T10:28:53.691Z,40.08
2022-11-30T10:29:57.105Z,44.33
2022-11-30T10:31:03.034Z,42.33
2022-11-30T10:32:13.658Z,49.53
2022-11-30T10:33:18.379Z,46.38
2022-11-30T10:34:22.223Z,55.13
2022-11-30T10:35:34.295Z,58.88
2022-11-30T10:36:39.437Z,49.15
2022-11-30T10:37:42.056Z,42.65
2022-11-30T10:38:48.425Z,47.97
2022-11-30T10:39:58.824Z,45.35
2022-11-30T10:41:06.349Z,43.97
2022-11-30T10:42:12.723Z,47.25
2022-11-30T10:43:20.617Z,48.28
2022-11-30T10:44:26.426Z,48.17
2022-11-30T10:45:30.329Z,49.65
2022-11-30T10:46:34.897Z,49.15
2022-11-30T10:47:41.484Z,49.92
2022-11-30T10:48:48.435Z,40.22
2022-11-30T10:49:51.720Z,39.53
2022-11-30T10:50:53.749Z,31.98
2022-11-30T10:52:01.589Z,37.00
2022-11-30T10:53:03.316Z,45.72
2022-11-30T10:54:14.553Z,41.42
2022-11-30T10:55:20.311Z,36.58
2022-11-30T10:56:21.847Z,52.72
2022-11-30T10:57:28.586Z,41.15
2022-11-30T10:58:32.938Z,45.47
2022-11-30T10:59:41.777Z,50.72
2022-11-30T11:00:50.315Z,33.55
2022-11-30T11:01:53.319Z,43.33
2022-11-30T11:02:55.067Z,42.72
2022-11-30T11:04:08.710Z,43.70
2022-11-30T11:05:21.895Z,44.28
2022-11-30T11:06:24.900Z,57.78
2022-11-30T11:07:26.661Z,43.75
2022-11-30T11:08:28.650Z,53.15
2022-11-30T11:09:33.858Z,45.85
2022-11-30T11:10:42.644Z,46.72
2022-11-30T11:11:44.196Z,48.58
2022-11-30T11:12:50.647Z,50.72
2022-11-30T11:13:52.207Z,61.20
2022-11-30T11:15:08.551Z,55.13
2022-11-30T11:16:11.586Z,49.13
2022-11-30T11:17:23.896Z,55.50
2022-11-30T11:18:27.154Z,51.92
2022-11-30T11:19:35.179Z,50.38
2022-11-30T11:20:37.998Z,51.75
2022-11-30T11:21:44.959Z,44.70
2022-11-30T11:22:46.548Z,45.40
2022-11-30T11:23:51.328Z,47.58
2022-11-30T11:24:55.958Z,52.53
2022-11-30T11:25:57.547Z,51.40
2022-11-30T11:26:59.199Z,49.65
2022-11-30T11:28:06.698Z,48.33
2022-11-30T11:29:24.441Z,53.50
2022-11-30T11:30:30.427Z,52.53
2022-11-30T11:31:36.728Z,58.33
2022-11-30T11:32:39.721Z,52.22
2022-11-30T11:33:50.629Z,52.20
2022-11-30T11:34:52.856Z,50.20
2022-11-30T11:35:55.718Z,55.25
2022-11-30T11:37:06.362Z,51.53
2022-11-30T11:38:23.136Z,52.83
2022-11-30T11:39:25.882Z,45.28
2022-11-30T11:40:27.609Z,48.25
2022-11-30T11:41:31.729Z,50.95
2022-11-30T11:42:36.452Z,49.15
2022-11-30T11:43:58.013Z,48.97
2022-11-30T11:45:01.721Z,52.92
2022-11-30T11:46:12.922Z,59.80
2022-11-30T11:47:24.428Z,52.58
2022-11-30T11:49:40.706Z,46.47
2022-11-30T11:51:06.664Z,40.85
2022-11-30T11:52:16.670Z,46.90
2022-11-30T11:53:20.970Z,41.65
2022-11-30T11:54:24.584Z,57.17
2022-11-30T11:55:26.205Z,47.67
2022-11-30T11:56:29.920Z,50.28
2022-11-30T11:57:40.579Z,50.50
2022-11-30T11:58:47.301Z,49.70
2022-11-30T11:59:54.929Z,55.13
2022-11-30T12:01:23.773Z,47.67
2022-11-30T12:02:29.391Z,42.78
2022-11-30T12:03:37.719Z,38.90
2022-11-30T12:04:45.634Z,42.10
2022-11-30T12:05:51.612Z,32.63
2022-11-30T12:06:56.250Z,41.20
2022-11-30T12:08:07.392Z,33.88
2022-11-30T12:09:15.422Z,30.00
2022-11-30T12:11:49.087Z,38.88
2022-11-30T12:12:54.708Z,32.40
2022-11-30T12:13:56.545Z,33.67
2022-11-30T12:14:58.426Z,38.15
2022-11-30T12:16:07.942Z,30.67
2022-11-30T12:17:26.170Z,46.20
2022-11-30T12:18:33.882Z,36.45
2022-11-30T12:19:43.126Z,45.05
2022-11-30T12:20:54.135Z,39.60
2022-11-30T12:22:04.109Z,40.72
2022-11-30T12:23:20.631Z,40.88
2022-11-30T12:24:53.703Z,43.97
2022-11-30T12:26:01.960Z,51.20
2022-11-30T12:27:11.638Z,27.73
2022-11-30T12:28:23.955Z,27.33
2022-11-30T12:29:34.343Z,40.72
2022-11-30T12:30:43.042Z,30.92
2022-11-30T12:31:59.951Z,33.10
2022-11-30T12:33:11.859Z,27.92
2022-11-30T12:34:19.916Z,33.72
2022-11-30T12:35:29.735Z,37.95
2022-11-30T12:36:46.095Z,23.90
2022-11-30T12:38:02.760Z,48.42
2022-11-30T12:39:08.326Z,35.47
2022-11-30T12:40:24.948Z,37.95
2022-11-30T12:41:36.320Z,44.10
2022-11-30T12:42:43.926Z,36.08
2022-11-30T12:43:52.796Z,50.00
2022-11-30T12:45:00.081Z,54.55
2022-11-30T12:46:09.819Z,55.30
2022-11-30T12:47:24.921Z,55.90
2022-11-30T12:48:34.136Z,51.78
2022-11-30T12:49:50.234Z,32.08
2022-11-30T12:51:04.643Z,20.27
2022-11-30T12:52:25.004Z,39.72
2022-11-30T12:53:31.915Z,40.15
2022-11-30T12:54:41.792Z,34.08
2022-11-30T12:55:48.190Z,41.17
2022-11-30T12:56:55.327Z,28.67
2022-11-30T12:58:02.675Z,30.77
2022-11-30T12:59:15.132Z,29.00
2022-11-30T13:00:20.538Z,45.08
2022-11-30T13:01:38.810Z,34.55
2022-11-30T13:03:04.470Z,41.22
2022-11-30T13:04:14.178Z,35.90
2022-11-30T13:05:19.537Z,31.55
2022-11-30T13:06:26.847Z,23.75
2022-11-30T13:07:34.631Z,24.85
2022-11-30T13:08:49.095Z,26.23
2022-11-30T13:09:54.654Z,32.80
2022-11-30T13:10:59.826Z,33.85
2022-11-30T13:12:06.610Z,38.85
2022-11-30T13:13:13.443Z,41.97
2022-11-30T13:14:20.399Z,41.55
2022-11-30T13:15:25.211Z,41.97
2022-11-30T13:16:29.598Z,34.20
2022-11-30T13:17:31.460Z,33.53
2022-11-30T13:18:33.465Z,34.22
2022-11-30T13:19:47.723Z,32.72
2022-11-30T13:20:55.449Z,30.95
2022-11-30T13:22:02.099Z,35.35
2022-11-30T13:23:09.917Z,42.83
2022-11-30T13:24:15.224Z,33.28
2022-11-30T13:25:59.401Z,36.63
2022-11-30T13:26:52.043Z,33.95
2022-11-30T13:28:02.758Z,32.88
2022-11-30T13:29:21.287Z,41.67
2022-11-30T13:30:32.129Z,34.80
2022-11-30T13:31:39.640Z,23.30
2022-11-30T13:32:58.341Z,33.72
2022-11-30T13:34:00.559Z,31.52
2022-11-30T13:35:35.311Z,26.17
2022-11-30T13:36:39.740Z,29.27
2022-11-30T13:37:41.527Z,33.80
2022-11-30T13:38:44.440Z,34.42
2022-11-30T13:39:49.326Z,33.58
2022-11-30T13:40:59.355Z,36.03
2022-11-30T13:42:37.446Z,37.97